Terminal Aerodrome Forecast
Issued by NWS

Current Version | Previous Version | Graphics & Text | Print | Product List | Glossary On
Versions: 1 2 3 4 5 6 7 8 9 10 11 12 13 14 15 16 17 18 19 20 21 22 23 24 25 26
000
FTUS41 KILN 221749
TAFLUK
TAF
KLUK 221749Z 2218/2318 05010KT P6SM OVC012
     FM222200 08007KT P6SM OVC012
     FM230200 08007KT 4SM BR OVC012
     FM230800 12005KT 2SM SHRA BR OVC009
     FM231600 22010KT 4SM -SHRA OVC009=

USA.gov is the U.S. government's official web portal to all federal, state and local government web resources and services.